sensor_id;sensor_type;location;lat;lon;timestamp;pressure;altitude;pressure_sealevel;temperature;humidity
74868;BME280;63419;42.262;12.210;2023-08-07T00:01:31;96922.97;;;22.32;100.00
74868;BME280;63419;42.262;12.210;2023-08-07T00:03:57;96922.28;;;22.45;100.00
74868;BME280;63419;42.262;12.210;2023-08-07T00:06:23;96923.44;;;22.42;100.00
74868;BME280;63419;42.262;12.210;2023-08-07T00:08:49;96926.31;;;22.69;100.00
74868;BME280;63419;42.262;12.210;2023-08-07T00:11:14;96951.69;;;21.52;100.00
74868;BME280;63419;42.262;12.210;2023-08-07T00:13:41;96951.28;;;21.25;100.00
74868;BME280;63419;42.262;12.210;2023-08-07T00:16:07;96964.41;;;20.87;100.00
74868;BME280;63419;42.262;12.210;2023-08-07T00:18:33;96934.91;;;21.83;100.00
74868;BME280;63419;42.262;12.210;2023-08-07T00:21:00;96946.06;;;21.55;100.00
74868;BME280;63419;42.262;12.210;2023-08-07T00:23:26;96934.81;;;21.76;100.00
74868;BME280;63419;42.262;12.210;2023-08-07T00:25:52;96950.63;;;20.85;100.00
74868;BME280;63419;42.262;12.210;2023-08-07T00:28:18;96937.06;;;21.35;100.00
74868;BME280;63419;42.262;12.210;2023-08-07T00:30:45;96935.69;;;21.09;100.00
74868;BME280;63419;42.262;12.210;2023-08-07T00:33:11;96935.69;;;21.09;100.00
74868;BME280;63419;42.262;12.210;2023-08-07T00:35:37;96926.25;;;21.53;100.00
74868;BME280;63419;42.262;12.210;2023-08-07T00:38:03;96939.25;;;21.31;100.00
74868;BME280;63419;42.262;12.210;2023-08-07T00:40:37;96938.72;;;21.51;100.00
74868;BME280;63419;42.262;12.210;2023-08-07T00:43:04;96948.44;;;21.50;100.00
74868;BME280;63419;42.262;12.210;2023-08-07T00:45:43;96948.78;;;21.77;100.00
74868;BME280;63419;42.262;12.210;2023-08-07T00:48:11;96948.88;;;21.54;100.00
74868;BME280;63419;42.262;12.210;2023-08-07T00:50:41;96968.50;;;20.59;100.00
74868;BME280;63419;42.262;12.210;2023-08-07T00:53:09;96982.47;;;19.08;100.00
74868;BME280;63419;42.262;12.210;2023-08-07T00:55:35;96975.66;;;19.79;100.00
74868;BME280;63419;42.262;12.210;2023-08-07T00:58:02;96976.03;;;20.07;100.00
74868;BME280;63419;42.262;12.210;2023-08-07T01:00:29;96976.06;;;20.62;100.00
74868;BME280;63419;42.262;12.210;2023-08-07T01:02:57;96971.53;;;20.79;100.00
74868;BME280;63419;42.262;12.210;2023-08-07T01:05:24;96991.25;;;17.98;100.00
74868;BME280;63419;42.262;12.210;2023-08-07T01:07:55;97041.81;;;17.71;100.00
74868;BME280;63419;42.262;12.210;2023-08-07T01:16:18;96988.75;;;19.79;100.00
74868;BME280;63419;42.262;12.210;2023-08-07T01:18:47;96978.41;;;20.17;100.00
74868;BME280;63419;42.262;12.210;2023-08-07T01:21:22;96970.81;;;19.99;100.00
74868;BME280;63419;42.262;12.210;2023-08-07T01:23:48;96990.59;;;20.02;100.00
74868;BME280;63419;42.262;12.210;2023-08-07T01:26:19;97001.81;;;19.79;100.00
74868;BME280;63419;42.262;12.210;2023-08-07T01:29:14;96998.38;;;19.70;100.00
74868;BME280;63419;42.262;12.210;2023-08-07T01:31:46;96988.34;;;20.30;100.00
74868;BME280;63419;42.262;12.210;2023-08-07T01:34:18;96978.63;;;20.70;100.00
74868;BME280;63419;42.262;12.210;2023-08-07T01:36:50;96971.63;;;20.62;100.00
74868;BME280;63419;42.262;12.210;2023-08-07T01:39:19;96974.69;;;20.66;100.00
74868;BME280;63419;42.262;12.210;2023-08-07T01:41:47;96970.81;;;20.62;100.00
74868;BME280;63419;42.262;12.210;2023-08-07T01:44:13;96983.25;;;20.60;100.00
74868;BME280;63419;42.262;12.210;2023-08-07T01:46:39;96978.31;;;20.88;100.00
74868;BME280;63419;42.262;12.210;2023-08-07T01:49:05;96983.75;;;20.86;100.00
74868;BME280;63419;42.262;12.210;2023-08-07T01:51:31;96984.22;;;21.05;100.00
74868;BME280;63419;42.262;12.210;2023-08-07T01:53:57;96998.59;;;20.71;100.00
74868;BME280;63419;42.262;12.210;2023-08-07T01:56:23;96978.91;;;21.51;100.00
74868;BME280;63419;42.262;12.210;2023-08-07T01:58:49;96968.13;;;21.76;100.00
74868;BME280;63419;42.262;12.210;2023-08-07T02:01:16;96967.25;;;21.68;100.00
74868;BME280;63419;42.262;12.210;2023-08-07T02:03:42;96965.84;;;22.02;100.00
74868;BME280;63419;42.262;12.210;2023-08-07T02:06:09;96962.63;;;21.85;100.00
74868;BME280;63419;42.262;12.210;2023-08-07T02:08:35;96962.94;;;21.97;100.00
74868;BME280;63419;42.262;12.210;2023-08-07T02:11:01;96975.81;;;21.92;100.00
74868;BME280;63419;42.262;12.210;2023-08-07T02:13:28;96960.22;;;22.57;100.00
74868;BME280;63419;42.262;12.210;2023-08-07T02:15:55;96949.03;;;22.98;100.00
74868;BME280;63419;42.262;12.210;2023-08-07T02:18:21;96966.13;;;22.44;100.00
74868;BME280;63419;42.262;12.210;2023-08-07T02:20:47;96949.03;;;23.19;100.00
74868;BME280;63419;42.262;12.210;2023-08-07T02:23:14;96952.94;;;23.30;100.00
74868;BME280;63419;42.262;12.210;2023-08-07T02:25:40;96955.41;;;22.89;100.00
74868;BME280;63419;42.262;12.210;2023-08-07T02:28:06;96957.50;;;22.72;100.00
74868;BME280;63419;42.262;12.210;2023-08-07T02:30:32;96954.09;;;22.78;100.00
74868;BME280;63419;42.262;12.210;2023-08-07T02:32:58;96975.59;;;22.23;100.00
74868;BME280;63419;42.262;12.210;2023-08-07T02:35:24;96959.34;;;22.71;100.00
74868;BME280;63419;42.262;12.210;2023-08-07T02:37:50;96943.56;;;23.21;100.00
74868;BME280;63419;42.262;12.210;2023-08-07T02:40:16;96940.78;;;23.29;100.00
74868;BME280;63419;42.262;12.210;2023-08-07T02:42:44;96935.56;;;23.71;100.00
74868;BME280;63419;42.262;12.210;2023-08-07T02:45:10;96937.50;;;23.55;100.00
74868;BME280;63419;42.262;12.210;2023-08-07T02:47:36;96944.31;;;23.78;100.00
74868;BME280;63419;42.262;12.210;2023-08-07T02:50:02;96950.66;;;23.55;100.00
74868;BME280;63419;42.262;12.210;2023-08-07T02:52:29;96945.72;;;23.39;100.00
74868;BME280;63419;42.262;12.210;2023-08-07T02:54:56;96956.22;;;23.74;100.00
74868;BME280;63419;42.262;12.210;2023-08-07T02:57:22;96934.94;;;24.10;100.00
74868;BME280;63419;42.262;12.210;2023-08-07T02:59:48;96941.31;;;23.88;100.00
74868;BME280;63419;42.262;12.210;2023-08-07T03:02:14;96943.03;;;24.09;100.00
74868;BME280;63419;42.262;12.210;2023-08-07T03:04:41;96952.97;;;23.72;100.00
74868;BME280;63419;42.262;12.210;2023-08-07T03:07:07;96942.66;;;24.25;100.00
74868;BME280;63419;42.262;12.210;2023-08-07T03:09:33;96944.06;;;24.14;100.00
74868;BME280;63419;42.262;12.210;2023-08-07T03:11:59;96965.84;;;23.53;100.00
74868;BME280;63419;42.262;12.210;2023-08-07T03:14:29;96961.66;;;23.66;100.00
74868;BME280;63419;42.262;12.210;2023-08-07T03:16:56;96950.44;;;23.85;100.00
74868;BME280;63419;42.262;12.210;2023-08-07T03:19:22;96945.84;;;24.07;100.00
74868;BME280;63419;42.262;12.210;2023-08-07T03:21:48;96952.34;;;24.05;100.00
74868;BME280;63419;42.262;12.210;2023-08-07T03:24:15;96963.78;;;23.49;100.00
74868;BME280;63419;42.262;12.210;2023-08-07T03:26:41;96975.09;;;23.14;100.00
74868;BME280;63419;42.262;12.210;2023-08-07T03:29:07;96977.94;;;21.82;100.00
74868;BME280;63419;42.262;12.210;2023-08-07T03:31:33;97010.59;;;20.88;100.00
74868;BME280;63419;42.262;12.210;2023-08-07T03:33:59;96981.25;;;22.05;100.00
74868;BME280;63419;42.262;12.210;2023-08-07T03:36:25;96956.31;;;22.74;100.00
74868;BME280;63419;42.262;12.210;2023-08-07T03:38:51;96982.44;;;21.88;100.00
74868;BME280;63419;42.262;12.210;2023-08-07T03:41:17;96995.47;;;21.81;100.00
74868;BME280;63419;42.262;12.210;2023-08-07T03:43:43;96965.72;;;22.62;100.00
74868;BME280;63419;42.262;12.210;2023-08-07T03:46:11;96951.66;;;22.98;100.00
74868;BME280;63419;42.262;12.210;2023-08-07T03:48:38;96964.13;;;22.89;100.00
74868;BME280;63419;42.262;12.210;2023-08-07T03:51:07;96961.44;;;23.32;100.00
74868;BME280;63419;42.262;12.210;2023-08-07T03:53:37;96962.72;;;23.43;100.00
74868;BME280;63419;42.262;12.210;2023-08-07T03:56:04;96966.16;;;23.37;100.00
74868;BME280;63419;42.262;12.210;2023-08-07T03:58:30;96969.09;;;23.55;100.00
74868;BME280;63419;42.262;12.210;2023-08-07T04:00:56;96948.03;;;23.97;100.00
74868;BME280;63419;42.262;12.210;2023-08-07T04:03:22;96957.56;;;23.63;100.00
74868;BME280;63419;42.262;12.210;2023-08-07T04:05:54;96955.78;;;23.70;100.00
74868;BME280;63419;42.262;12.210;2023-08-07T04:08:21;96966.59;;;23.41;100.00
74868;BME280;63419;42.262;12.210;2023-08-07T04:11:07;96981.66;;;23.04;100.00
74868;BME280;63419;42.262;12.210;2023-08-07T04:13:33;96990.88;;;23.14;100.00
74868;BME280;63419;42.262;12.210;2023-08-07T04:16:00;96980.38;;;23.49;100.00
74868;BME280;63419;42.262;12.210;2023-08-07T04:18:33;96989.78;;;23.59;100.00
74868;BME280;63419;42.262;12.210;2023-08-07T04:21:00;96983.28;;;23.89;100.00
74868;BME280;63419;42.262;12.210;2023-08-07T04:23:26;96989.53;;;23.88;100.00
74868;BME280;63419;42.262;12.210;2023-08-07T04:25:53;96992.34;;;23.80;100.00
74868;BME280;63419;42.262;12.210;2023-08-07T04:28:20;96991.78;;;23.56;100.00
74868;BME280;63419;42.262;12.210;2023-08-07T04:30:50;97013.34;;;23.17;100.00
74868;BME280;63419;42.262;12.210;2023-08-07T04:33:17;96994.59;;;23.83;100.00
74868;BME280;63419;42.262;12.210;2023-08-07T04:35:43;96990.81;;;23.64;100.00
74868;BME280;63419;42.262;12.210;2023-08-07T04:38:09;96982.06;;;23.85;100.00
74868;BME280;63419;42.262;12.210;2023-08-07T04:40:35;96970.16;;;24.03;100.00
74868;BME280;63419;42.262;12.210;2023-08-07T04:43:02;96967.00;;;24.21;100.00
74868;BME280;63419;42.262;12.210;2023-08-07T04:45:28;96946.03;;;24.67;100.00
74868;BME280;63419;42.262;12.210;2023-08-07T04:47:54;96951.59;;;24.24;100.00
74868;BME280;63419;42.262;12.210;2023-08-07T04:50:21;96952.41;;;24.25;100.00
74868;BME280;63419;42.262;12.210;2023-08-07T04:52:47;96952.63;;;24.30;100.00
74868;BME280;63419;42.262;12.210;2023-08-07T04:55:13;96944.59;;;24.65;100.00
74868;BME280;63419;42.262;12.210;2023-08-07T04:57:39;96936.09;;;24.89;100.00
74868;BME280;63419;42.262;12.210;2023-08-07T05:00:06;96950.63;;;24.39;100.00
74868;BME280;63419;42.262;12.210;2023-08-07T05:02:33;96961.22;;;23.97;100.00
74868;BME280;63419;42.262;12.210;2023-08-07T05:05:00;96976.25;;;23.68;100.00
74868;BME280;63419;42.262;12.210;2023-08-07T05:07:26;96971.75;;;23.97;100.00
74868;BME280;63419;42.262;12.210;2023-08-07T05:09:52;96967.31;;;24.04;100.00
74868;BME280;63419;42.262;12.210;2023-08-07T05:12:19;96959.69;;;24.29;100.00
74868;BME280;63419;42.262;12.210;2023-08-07T05:14:45;96960.13;;;24.40;100.00
74868;BME280;63419;42.262;12.210;2023-08-07T05:17:12;96972.28;;;24.34;100.00
74868;BME280;63419;42.262;12.210;2023-08-07T05:19:39;96962.03;;;24.59;100.00
74868;BME280;63419;42.262;12.210;2023-08-07T05:22:05;96972.97;;;24.56;100.00
74868;BME280;63419;42.262;12.210;2023-08-07T05:24:31;96977.63;;;24.54;100.00
74868;BME280;63419;42.262;12.210;2023-08-07T05:27:06;97002.47;;;23.48;100.00
74868;BME280;63419;42.262;12.210;2023-08-07T05:29:34;96989.84;;;23.72;100.00
74868;BME280;63419;42.262;12.210;2023-08-07T05:32:01;96997.25;;;23.83;100.00
74868;BME280;63419;42.262;12.210;2023-08-07T05:34:29;96986.44;;;24.20;100.00
74868;BME280;63419;42.262;12.210;2023-08-07T05:36:55;96990.06;;;24.12;100.00
74868;BME280;63419;42.262;12.210;2023-08-07T05:39:21;97001.22;;;23.79;100.00
74868;BME280;63419;42.262;12.210;2023-08-07T05:41:47;97008.94;;;23.17;100.00
74868;BME280;63419;42.262;12.210;2023-08-07T05:44:13;97012.25;;;23.61;100.00
74868;BME280;63419;42.262;12.210;2023-08-07T05:46:40;96985.22;;;24.22;100.00
74868;BME280;63419;42.262;12.210;2023-08-07T05:49:06;96991.56;;;23.86;100.00
74868;BME280;63419;42.262;12.210;2023-08-07T05:51:32;97014.81;;;22.98;100.00
74868;BME280;63419;42.262;12.210;2023-08-07T05:53:58;97018.63;;;23.45;100.00
74868;BME280;63419;42.262;12.210;2023-08-07T05:56:25;97030.81;;;22.81;100.00
74868;BME280;63419;42.262;12.210;2023-08-07T05:58:51;97000.72;;;23.97;100.00
74868;BME280;63419;42.262;12.210;2023-08-07T06:01:17;96976.66;;;24.95;100.00
74868;BME280;63419;42.262;12.210;2023-08-07T06:03:43;96972.44;;;25.27;100.00
74868;BME280;63419;42.262;12.210;2023-08-07T06:06:09;96976.03;;;24.66;100.00
74868;BME280;63419;42.262;12.210;2023-08-07T06:08:35;96979.91;;;25.04;100.00
74868;BME280;63419;42.262;12.210;2023-08-07T06:11:02;96972.44;;;24.94;100.00
74868;BME280;63419;42.262;12.210;2023-08-07T06:13:29;97011.34;;;23.75;100.00
74868;BME280;63419;42.262;12.210;2023-08-07T06:15:55;97058.66;;;22.91;100.00
74868;BME280;63419;42.262;12.210;2023-08-07T06:18:21;97021.06;;;23.75;100.00
74868;BME280;63419;42.262;12.210;2023-08-07T06:20:47;97018.66;;;24.15;100.00
74868;BME280;63419;42.262;12.210;2023-08-07T06:23:13;97005.69;;;24.95;100.00
74868;BME280;63419;42.262;12.210;2023-08-07T06:25:39;96984.13;;;25.65;100.00
74868;BME280;63419;42.262;12.210;2023-08-07T06:28:24;97053.25;;;23.21;100.00
74868;BME280;63419;42.262;12.210;2023-08-07T06:30:50;97053.00;;;23.15;100.00
74868;BME280;63419;42.262;12.210;2023-08-07T06:33:16;97071.81;;;22.91;100.00
74868;BME280;63419;42.262;12.210;2023-08-07T06:35:42;97049.59;;;23.43;100.00
74868;BME280;63419;42.262;12.210;2023-08-07T06:38:09;97019.16;;;24.45;100.00
74868;BME280;63419;42.262;12.210;2023-08-07T06:40:38;97021.00;;;24.45;100.00
74868;BME280;63419;42.262;12.210;2023-08-07T06:43:05;96997.19;;;25.06;100.00
74868;BME280;63419;42.262;12.210;2023-08-07T06:45:31;96983.38;;;25.31;100.00
74868;BME280;63419;42.262;12.210;2023-08-07T06:47:57;96964.97;;;26.03;100.00
74868;BME280;63419;42.262;12.210;2023-08-07T06:50:24;96976.19;;;25.78;100.00
74868;BME280;63419;42.262;12.210;2023-08-07T06:52:50;97014.88;;;23.89;100.00
74868;BME280;63419;42.262;12.210;2023-08-07T06:55:17;96980.13;;;25.09;100.00
74868;BME280;63419;42.262;12.210;2023-08-07T06:57:44;97000.72;;;24.45;100.00
74868;BME280;63419;42.262;12.210;2023-08-07T07:00:11;96999.09;;;24.44;100.00
74868;BME280;63419;42.262;12.210;2023-08-07T07:02:37;96969.94;;;25.59;100.00
74868;BME280;63419;42.262;12.210;2023-08-07T07:05:03;96994.50;;;24.11;100.00
74868;BME280;63419;42.262;12.210;2023-08-07T07:07:30;97021.94;;;23.82;100.00
74868;BME280;63419;42.262;12.210;2023-08-07T07:09:57;97053.84;;;22.79;100.00
74868;BME280;63419;42.262;12.210;2023-08-07T07:12:29;97043.88;;;23.11;100.00
74868;BME280;63419;42.262;12.210;2023-08-07T07:14:55;97012.31;;;24.03;100.00
74868;BME280;63419;42.262;12.210;2023-08-07T07:17:21;96989.88;;;24.88;100.00
74868;BME280;63419;42.262;12.210;2023-08-07T07:19:48;96966.59;;;25.91;100.00
74868;BME280;63419;42.262;12.210;2023-08-07T07:22:14;96995.59;;;24.30;100.00
74868;BME280;63419;42.262;12.210;2023-08-07T07:24:40;97006.50;;;24.14;100.00
74868;BME280;63419;42.262;12.210;2023-08-07T07:27:07;97019.97;;;24.39;100.00
74868;BME280;63419;42.262;12.210;2023-08-07T07:29:33;97034.22;;;23.75;100.00
74868;BME280;63419;42.262;12.210;2023-08-07T07:31:59;97032.22;;;23.77;100.00
74868;BME280;63419;42.262;12.210;2023-08-07T07:34:25;97005.72;;;24.88;100.00
74868;BME280;63419;42.262;12.210;2023-08-07T07:36:52;96975.06;;;26.19;100.00
74868;BME280;63419;42.262;12.210;2023-08-07T07:39:20;96949.53;;;27.27;100.00
74868;BME280;63419;42.262;12.210;2023-08-07T07:41:46;96958.09;;;27.23;100.00
74868;BME280;63419;42.262;12.210;2023-08-07T07:44:12;96993.50;;;25.74;100.00
74868;BME280;63419;42.262;12.210;2023-08-07T07:46:38;97035.88;;;24.59;100.00
74868;BME280;63419;42.262;12.210;2023-08-07T07:49:05;97034.75;;;24.33;100.00
74868;BME280;63419;42.262;12.210;2023-08-07T07:51:32;97014.88;;;25.39;100.00
74868;BME280;63419;42.262;12.210;2023-08-07T07:53:58;96969.84;;;26.45;100.00
74868;BME280;63419;42.262;12.210;2023-08-07T07:56:24;97004.09;;;25.21;100.00
74868;BME280;63419;42.262;12.210;2023-08-07T07:58:51;97008.78;;;25.39;100.00
74868;BME280;63419;42.262;12.210;2023-08-07T08:01:17;96980.09;;;26.59;100.00
74868;BME280;63419;42.262;12.210;2023-08-07T08:03:43;96978.50;;;26.20;100.00
74868;BME280;63419;42.262;12.210;2023-08-07T08:06:13;96960.00;;;27.15;100.00
74868;BME280;63419;42.262;12.210;2023-08-07T08:08:39;96977.31;;;26.09;100.00
74868;BME280;63419;42.262;12.210;2023-08-07T08:11:05;96953.75;;;27.53;100.00
74868;BME280;63419;42.262;12.210;2023-08-07T08:13:31;96934.44;;;28.20;100.00
74868;BME280;63419;42.262;12.210;2023-08-07T08:15:58;96943.28;;;28.44;100.00
74868;BME280;63419;42.262;12.210;2023-08-07T08:18:24;96947.59;;;28.27;100.00
74868;BME280;63419;42.262;12.210;2023-08-07T08:20:50;96945.41;;;28.24;100.00
74868;BME280;63419;42.262;12.210;2023-08-07T08:23:16;96958.31;;;27.83;100.00
74868;BME280;63419;42.262;12.210;2023-08-07T08:25:43;96951.41;;;28.01;100.00
74868;BME280;63419;42.262;12.210;2023-08-07T08:28:09;96948.03;;;28.84;100.00
74868;BME280;63419;42.262;12.210;2023-08-07T08:30:35;96939.38;;;29.48;100.00
74868;BME280;63419;42.262;12.210;2023-08-07T08:33:01;96970.97;;;27.44;100.00
74868;BME280;63419;42.262;12.210;2023-08-07T08:35:28;96958.09;;;28.22;100.00
74868;BME280;63419;42.262;12.210;2023-08-07T08:37:54;96932.09;;;29.79;100.00
74868;BME280;63419;42.262;12.210;2023-08-07T08:40:20;96971.34;;;27.48;100.00
74868;BME280;63419;42.262;12.210;2023-08-07T08:42:46;96974.75;;;27.30;100.00
74868;BME280;63419;42.262;12.210;2023-08-07T08:45:14;96960.09;;;27.71;100.00
74868;BME280;63419;42.262;12.210;2023-08-07T08:47:42;96989.16;;;26.45;100.00
74868;BME280;63419;42.262;12.210;2023-08-07T08:50:14;96991.78;;;26.45;100.00
74868;BME280;63419;42.262;12.210;2023-08-07T08:52:44;97005.50;;;26.35;100.00
74868;BME280;63419;42.262;12.210;2023-08-07T08:55:14;96980.63;;;27.76;100.00
74868;BME280;63419;42.262;12.210;2023-08-07T08:57:41;96982.31;;;27.70;100.00
74868;BME280;63419;42.262;12.210;2023-08-07T09:00:09;96988.56;;;27.57;100.00
74868;BME280;63419;42.262;12.210;2023-08-07T09:02:54;96964.25;;;29.18;100.00
74868;BME280;63419;42.262;12.210;2023-08-07T09:05:21;96964.19;;;28.95;100.00
74868;BME280;63419;42.262;12.210;2023-08-07T09:07:48;96976.78;;;28.57;100.00
74868;BME280;63419;42.262;12.210;2023-08-07T09:10:16;96973.66;;;28.91;100.00
74868;BME280;63419;42.262;12.210;2023-08-07T09:13:03;96986.16;;;28.41;100.00
74868;BME280;63419;42.262;12.210;2023-08-07T09:15:32;96971.72;;;29.57;100.00
74868;BME280;63419;42.262;12.210;2023-08-07T09:18:00;96942.13;;;31.65;100.00
74868;BME280;63419;42.262;12.210;2023-08-07T09:20:28;96966.22;;;30.68;100.00
74868;BME280;63419;42.262;12.210;2023-08-07T09:22:54;96939.56;;;32.41;100.00
74868;BME280;63419;42.262;12.210;2023-08-07T09:25:31;96944.31;;;31.68;100.00
74868;BME280;63419;42.262;12.210;2023-08-07T09:27:57;96943.25;;;32.13;100.00
74868;BME280;63419;42.262;12.210;2023-08-07T09:30:28;96916.91;;;33.56;100.00
74868;BME280;63419;42.262;12.210;2023-08-07T09:32:57;96934.50;;;32.45;100.00
74868;BME280;63419;42.262;12.210;2023-08-07T09:35:24;96977.72;;;29.05;100.00
74868;BME280;63419;42.262;12.210;2023-08-07T09:37:51;96979.13;;;29.19;100.00
74868;BME280;63419;42.262;12.210;2023-08-07T09:40:19;96945.06;;;31.46;100.00
74868;BME280;63419;42.262;12.210;2023-08-07T09:42:52;96989.47;;;27.88;100.00
74868;BME280;63419;42.262;12.210;2023-08-07T09:45:23;96970.13;;;29.20;100.00
74868;BME280;63419;42.262;12.210;2023-08-07T09:48:03;96960.97;;;29.64;100.00
74868;BME280;63419;42.262;12.210;2023-08-07T09:50:32;96967.34;;;29.39;100.00
74868;BME280;63419;42.262;12.210;2023-08-07T09:52:58;96931.47;;;31.48;100.00
74868;BME280;63419;42.262;12.210;2023-08-07T09:55:27;96971.38;;;29.18;100.00
74868;BME280;63419;42.262;12.210;2023-08-07T09:57:54;96946.88;;;30.90;100.00
74868;BME280;63419;42.262;12.210;2023-08-07T10:00:21;96946.81;;;30.39;100.00
74868;BME280;63419;42.262;12.210;2023-08-07T10:02:49;96963.63;;;29.87;100.00
74868;BME280;63419;42.262;12.210;2023-08-07T10:05:17;96982.72;;;28.41;100.00
74868;BME280;63419;42.262;12.210;2023-08-07T10:07:43;96965.72;;;29.85;100.00
74868;BME280;63419;42.262;12.210;2023-08-07T10:10:11;96969.41;;;29.60;100.00
74868;BME280;63419;42.262;12.210;2023-08-07T10:12:38;96945.88;;;31.30;100.00
74868;BME280;63419;42.262;12.210;2023-08-07T10:15:05;96957.16;;;30.52;100.00
74868;BME280;63419;42.262;12.210;2023-08-07T10:17:32;96939.44;;;32.04;100.00
74868;BME280;63419;42.262;12.210;2023-08-07T10:19:59;96923.53;;;33.44;100.00
74868;BME280;63419;42.262;12.210;2023-08-07T10:22:29;96901.41;;;34.58;100.00
74868;BME280;63419;42.262;12.210;2023-08-07T10:25:01;96886.94;;;35.00;100.00
74868;BME280;63419;42.262;12.210;2023-08-07T10:27:34;96922.41;;;32.97;100.00
74868;BME280;63419;42.262;12.210;2023-08-07T10:30:06;96888.28;;;34.92;100.00
74868;BME280;63419;42.262;12.210;2023-08-07T10:32:34;96935.19;;;31.86;100.00
74868;BME280;63419;42.262;12.210;2023-08-07T10:35:05;96980.47;;;28.98;100.00
74868;BME280;63419;42.262;12.210;2023-08-07T10:37:39;96926.75;;;31.94;100.00
74868;BME280;63419;42.262;12.210;2023-08-07T10:40:08;96954.66;;;30.46;100.00
74868;BME280;63419;42.262;12.210;2023-08-07T10:42:59;96924.84;;;32.39;100.00
74868;BME280;63419;42.262;12.210;2023-08-07T10:45:27;96940.97;;;31.56;100.00
74868;BME280;63419;42.262;12.210;2023-08-07T10:50:33;96860.25;;;37.37;100.00
74868;BME280;63419;42.262;12.210;2023-08-07T10:53:03;96955.91;;;30.89;100.00
74868;BME280;63419;42.262;12.210;2023-08-07T10:55:44;96971.56;;;30.11;100.00
74868;BME280;63419;42.262;12.210;2023-08-07T10:58:24;96956.56;;;30.79;100.00
74868;BME280;63419;42.262;12.210;2023-08-07T11:01:15;96939.59;;;31.36;100.00
74868;BME280;63419;42.262;12.210;2023-08-07T11:03:42;96936.69;;;31.99;100.00
74868;BME280;63419;42.262;12.210;2023-08-07T11:06:10;96966.16;;;30.34;100.00
74868;BME280;63419;42.262;12.210;2023-08-07T11:08:37;96869.44;;;36.03;100.00
74868;BME280;63419;42.262;12.210;2023-08-07T11:11:07;96872.19;;;36.72;100.00
74868;BME280;63419;42.262;12.210;2023-08-07T11:13:34;96837.34;;;38.54;100.00
74868;BME280;63419;42.262;12.210;2023-08-07T11:16:02;96870.69;;;36.56;100.00
74868;BME280;63419;42.262;12.210;2023-08-07T11:18:30;96876.06;;;36.21;100.00
74868;BME280;63419;42.262;12.210;2023-08-07T11:20:57;96914.53;;;34.33;100.00
74868;BME280;63419;42.262;12.210;2023-08-07T11:23:28;96948.16;;;31.21;100.00
74868;BME280;63419;42.262;12.210;2023-08-07T11:25:55;96919.63;;;33.14;100.00
74868;BME280;63419;42.262;12.210;2023-08-07T11:28:23;96871.16;;;36.63;100.00
74868;BME280;63419;42.262;12.210;2023-08-07T11:30:52;96874.88;;;36.72;100.00
74868;BME280;63419;42.262;12.210;2023-08-07T11:33:19;96909.81;;;33.83;100.00
74868;BME280;63419;42.262;12.210;2023-08-07T11:35:47;96883.34;;;35.45;100.00
74868;BME280;63419;42.262;12.210;2023-08-07T11:38:38;96817.34;;;39.85;100.00
74868;BME280;63419;42.262;12.210;2023-08-07T11:41:06;96765.75;;;44.34;100.00
74868;BME280;63419;42.262;12.210;2023-08-07T11:43:37;96854.31;;;37.83;100.00
74868;BME280;63419;42.262;12.210;2023-08-07T11:46:06;96828.41;;;39.33;100.00
74868;BME280;63419;42.262;12.210;2023-08-07T11:48:36;96769.59;;;43.57;100.00
74868;BME280;63419;42.262;12.210;2023-08-07T11:51:05;96907.34;;;34.91;100.00
74868;BME280;63419;42.262;12.210;2023-08-07T11:53:37;96885.47;;;36.14;100.00
74868;BME280;63419;42.262;12.210;2023-08-07T11:56:09;96897.94;;;35.08;100.00
74868;BME280;63419;42.262;12.210;2023-08-07T12:01:14;96885.56;;;35.98;100.00
74868;BME280;63419;42.262;12.210;2023-08-07T12:06:25;96954.91;;;31.46;100.00
74868;BME280;63419;42.262;12.210;2023-08-07T12:08:56;96947.41;;;31.82;100.00
74868;BME280;63419;42.262;12.210;2023-08-07T12:11:23;96906.25;;;34.56;100.00
74868;BME280;63419;42.262;12.210;2023-08-07T12:13:50;96913.56;;;33.87;100.00
74868;BME280;63419;42.262;12.210;2023-08-07T12:16:17;96944.78;;;32.04;100.00
74868;BME280;63419;42.262;12.210;2023-08-07T12:18:48;96977.75;;;29.88;100.00
74868;BME280;63419;42.262;12.210;2023-08-07T12:21:18;96969.84;;;29.93;100.00
74868;BME280;63419;42.262;12.210;2023-08-07T12:23:46;96935.94;;;31.81;100.00
74868;BME280;63419;42.262;12.210;2023-08-07T12:26:16;96934.50;;;32.45;100.00
74868;BME280;63419;42.262;12.210;2023-08-07T12:28:43;96925.44;;;33.11;100.00
74868;BME280;63419;42.262;12.210;2023-08-07T12:31:10;96964.19;;;29.89;100.00
74868;BME280;63419;42.262;12.210;2023-08-07T12:33:36;96972.66;;;29.62;100.00
74868;BME280;63419;42.262;12.210;2023-08-07T12:36:02;96969.78;;;29.76;100.00
74868;BME280;63419;42.262;12.210;2023-08-07T12:38:30;96987.59;;;28.74;100.00
74868;BME280;63419;42.262;12.210;2023-08-07T12:41:16;96969.06;;;29.69;100.00
74868;BME280;63419;42.262;12.210;2023-08-07T12:43:42;96980.41;;;29.40;100.00
74868;BME280;63419;42.262;12.210;2023-08-07T12:46:09;96942.19;;;31.31;100.00
74868;BME280;63419;42.262;12.210;2023-08-07T12:48:35;96964.56;;;30.22;100.00
74868;BME280;63419;42.262;12.210;2023-08-07T12:51:03;96951.34;;;30.39;100.00
74868;BME280;63419;42.262;12.210;2023-08-07T12:53:29;96925.53;;;32.56;100.00
74868;BME280;63419;42.262;12.210;2023-08-07T12:56:16;96960.91;;;29.47;100.00
74868;BME280;63419;42.262;12.210;2023-08-07T12:58:43;96901.28;;;34.01;100.00